createdAt,value
2022-12-13T00:00:22.343Z,-4.44
2022-12-13T00:05:57.566Z,-4.50
2022-12-13T00:11:18.839Z,-4.37
2022-12-13T00:16:39.787Z,-4.29
2022-12-13T00:22:00.966Z,-4.48
2022-12-13T00:27:22.218Z,-4.76
2022-12-13T00:32:43.092Z,-4.65
2022-12-13T00:38:03.750Z,-4.60
2022-12-13T00:43:24.532Z,-4.55
2022-12-13T00:48:50.444Z,-4.70
2022-12-13T00:54:11.408Z,-4.71
2022-12-13T00:59:31.972Z,-4.63
2022-12-13T01:04:52.672Z,-4.76
2022-12-13T01:10:13.440Z,-4.87
2022-12-13T01:15:34.035Z,-4.96
2022-12-13T01:21:04.121Z,-4.81
2022-12-13T01:26:24.814Z,-4.69
2022-12-13T01:31:45.746Z,-4.68
2022-12-13T01:37:06.452Z,-4.76
2022-12-13T01:42:27.114Z,-4.86
2022-12-13T01:47:53.606Z,-5.03
2022-12-13T01:53:18.838Z,-5.15
2022-12-13T01:58:40.826Z,-5.29
2022-12-13T02:04:02.090Z,-5.34
2022-12-13T02:09:23.562Z,-5.26
2022-12-13T02:14:44.680Z,-5.13
2022-12-13T02:20:26.676Z,-5.23
2022-12-13T02:26:05.923Z,-5.44
2022-12-13T02:31:45.583Z,-5.45
2022-12-13T02:37:35.696Z,-5.38
2022-12-13T02:43:09.033Z,-5.58
2022-12-13T02:48:38.404Z,-5.62
2022-12-13T02:53:59.150Z,-5.42
2022-12-13T02:59:20.005Z,-5.48
2022-12-13T03:05:03.575Z,-5.57
2022-12-13T03:10:33.233Z,-5.62
2022-12-13T03:16:00.226Z,-5.40
2022-12-13T03:21:21.235Z,-5.55
2022-12-13T03:26:42.185Z,-5.60
2022-12-13T03:32:04.395Z,-5.60
2022-12-13T03:37:25.521Z,-5.43
2022-12-13T03:42:47.106Z,-5.56
2022-12-13T03:48:08.056Z,-5.67
2022-12-13T03:53:33.022Z,-5.98
2022-12-13T03:58:55.198Z,-5.98
2022-12-13T04:04:15.779Z,-5.93
2022-12-13T04:09:36.607Z,-5.81
2022-12-13T04:14:57.383Z,-5.86
2022-12-13T04:20:18.232Z,-5.91
2022-12-13T04:25:40.504Z,-5.90
2022-12-13T04:31:01.146Z,-5.92
2022-12-13T04:36:31.200Z,-5.99
2022-12-13T04:41:53.738Z,-6.04
2022-12-13T04:47:14.296Z,-5.94
2022-12-13T04:52:35.239Z,-5.87
2022-12-13T04:57:56.346Z,-6.02
2022-12-13T05:03:17.332Z,-5.99
2022-12-13T05:08:38.375Z,-6.08
2022-12-13T05:14:00.404Z,-6.05
2022-12-13T05:19:21.171Z,-6.23
2022-12-13T05:24:51.999Z,-6.15
2022-12-13T05:30:13.282Z,-6.09
2022-12-13T05:35:34.294Z,-6.18
2022-12-13T05:40:55.332Z,-6.32
2022-12-13T05:46:16.760Z,-6.39
2022-12-13T05:51:37.368Z,-6.45
2022-12-13T05:56:58.264Z,-6.46
2022-12-13T06:02:21.692Z,-6.56
2022-12-13T06:07:42.865Z,-6.39
2022-12-13T06:13:21.787Z,-6.47
2022-12-13T06:18:45.984Z,-6.75
2022-12-13T06:24:11.333Z,-6.84
2022-12-13T06:29:32.129Z,-7.00
2022-12-13T06:34:52.792Z,-6.99
2022-12-13T06:40:22.859Z,-7.13
2022-12-13T06:45:43.830Z,-7.30
2022-12-13T06:51:05.324Z,-7.35
2022-12-13T06:56:26.288Z,-7.43
2022-12-13T07:01:50.497Z,-7.73
2022-12-13T07:07:11.403Z,-7.79
2022-12-13T07:12:32.866Z,-7.46
2022-12-13T07:17:53.770Z,-7.70
2022-12-13T07:23:14.439Z,-7.83
2022-12-13T07:28:37.140Z,-7.77
2022-12-13T07:33:57.823Z,-7.92
2022-12-13T07:39:18.571Z,-7.87
2022-12-13T07:44:39.144Z,-7.73
2022-12-13T07:49:59.750Z,-7.61
2022-12-13T07:55:23.322Z,-7.14
2022-12-13T08:01:03.020Z,-7.23
2022-12-13T08:06:24.221Z,-7.44
2022-12-13T08:11:44.874Z,-7.31
2022-12-13T08:17:05.638Z,-7.37
2022-12-13T08:22:26.346Z,-7.29
2022-12-13T08:27:47.118Z,-7.10
2022-12-13T08:33:07.892Z,-6.85
2022-12-13T08:38:28.897Z,-6.89
2022-12-13T08:43:49.702Z,-6.91
2022-12-13T08:49:11.791Z,-6.85
2022-12-13T08:54:35.808Z,-6.91
2022-12-13T08:59:56.957Z,-7.20
2022-12-13T09:05:33.479Z,-6.98
2022-12-13T09:11:00.203Z,-6.71
2022-12-13T09:16:24.901Z,-6.50
2022-12-13T09:21:46.346Z,-6.48
2022-12-13T09:27:10.279Z,-6.24
2022-12-13T09:32:31.741Z,-6.03
2022-12-13T09:37:52.633Z,-5.92
2022-12-13T09:43:31.718Z,-5.85
2022-12-13T09:49:01.513Z,-5.87
2022-12-13T09:54:25.673Z,-5.97
2022-12-13T09:59:47.710Z,-5.86
2022-12-13T10:05:21.832Z,-6.01
2022-12-13T10:10:45.459Z,-6.08
2022-12-13T10:16:36.312Z,-5.97
2022-12-13T10:22:02.211Z,-5.84
2022-12-13T10:27:29.338Z,-5.76
2022-12-13T10:33:02.715Z,-5.61
2022-12-13T10:38:32.003Z,-5.40
2022-12-13T10:44:12.927Z,-5.40
2022-12-13T10:49:40.513Z,-5.37
2022-12-13T10:55:22.808Z,-5.21
2022-12-13T11:00:47.105Z,-5.15
2022-12-13T11:06:16.641Z,-5.21
2022-12-13T11:11:37.397Z,-5.21
2022-12-13T11:17:10.521Z,-5.16
2022-12-13T11:22:37.533Z,-5.15
2022-12-13T11:28:01.233Z,-5.23
2022-12-13T11:33:49.109Z,-5.14
2022-12-13T11:39:19.696Z,-5.17
2022-12-13T11:44:48.069Z,-5.09
2022-12-13T11:50:33.354Z,-4.91
2022-12-13T11:55:58.043Z,-4.53
2022-12-13T12:01:27.877Z,-4.19
2022-12-13T12:07:30.659Z,-4.19
2022-12-13T12:12:55.651Z,-4.01
2022-12-13T12:18:17.000Z,-3.85
2022-12-13T12:24:20.222Z,-3.84
2022-12-13T12:30:01.851Z,-4.01
2022-12-13T12:35:39.222Z,-4.28
2022-12-13T12:41:28.551Z,-4.29
2022-12-13T12:53:13.836Z,-4.37
2022-12-13T12:58:34.867Z,-4.48
2022-12-13T13:04:02.071Z,-4.42
2022-12-13T13:09:24.393Z,-4.38
2022-12-13T13:14:45.649Z,-4.33
2022-12-13T13:20:23.598Z,-4.18
2022-12-13T13:26:15.956Z,-4.09
2022-12-13T13:32:05.451Z,-4.11
2022-12-13T13:37:48.183Z,-4.20
2022-12-13T13:43:12.212Z,-4.31
2022-12-13T13:48:56.699Z,-4.24
2022-12-13T13:54:45.585Z,-4.22
2022-12-13T14:00:29.872Z,-4.32
2022-12-13T14:06:21.449Z,-4.59
2022-12-13T14:12:12.820Z,-5.00
2022-12-13T14:18:01.200Z,-5.21
2022-12-13T14:23:46.807Z,-5.06
2022-12-13T14:29:15.346Z,-5.11
2022-12-13T14:34:37.551Z,-5.21
2022-12-13T14:40:22.954Z,-5.38
2022-12-13T14:45:43.810Z,-5.55
2022-12-13T14:51:04.903Z,-5.49
2022-12-13T14:56:28.389Z,-5.33
2022-12-13T15:02:05.539Z,-5.28
2022-12-13T15:07:35.904Z,-5.36
2022-12-13T15:12:58.237Z,-5.30
2022-12-13T15:18:20.276Z,-5.31
2022-12-13T15:23:53.139Z,-5.10
2022-12-13T15:29:21.333Z,-4.76
2022-12-13T15:34:46.331Z,-4.66
2022-12-13T15:40:08.889Z,-4.55
2022-12-13T15:45:36.694Z,-4.33
2022-12-13T15:51:09.636Z,-4.30
2022-12-13T15:56:33.689Z,-4.48
2022-12-13T16:01:58.522Z,-4.52
2022-12-13T16:07:32.261Z,-4.04
2022-12-13T16:13:02.537Z,-4.64
2022-12-13T16:18:41.562Z,-4.95
2022-12-13T16:24:03.635Z,-4.99
2022-12-13T16:29:24.652Z,-3.81
2022-12-13T16:34:45.535Z,-3.92
2022-12-13T16:40:30.007Z,-4.37
2022-12-13T16:45:53.434Z,-4.77
2022-12-13T16:51:14.012Z,-5.08
2022-12-13T16:56:34.857Z,-5.65
2022-12-13T17:01:56.158Z,-5.85
2022-12-13T17:07:16.923Z,-5.89
2022-12-13T17:12:37.578Z,-5.92
2022-12-13T17:17:58.606Z,-6.12
2022-12-13T17:23:19.625Z,-6.10
2022-12-13T17:28:40.329Z,-6.08
2022-12-13T17:34:01.334Z,-5.88
2022-12-13T17:39:22.962Z,-6.13
2022-12-13T17:44:43.752Z,-6.27
2022-12-13T17:50:04.847Z,-6.13
2022-12-13T17:55:25.432Z,-6.25
2022-12-13T18:00:45.962Z,-6.44
2022-12-13T18:06:07.434Z,-6.34
2022-12-13T18:11:33.329Z,-6.40
2022-12-13T18:16:54.777Z,-6.81
2022-12-13T18:22:15.618Z,-6.64
2022-12-13T18:27:36.329Z,-6.69
2022-12-13T18:32:57.483Z,-6.87
2022-12-13T18:38:18.143Z,-6.82
2022-12-13T18:43:38.925Z,-6.74
2022-12-13T18:48:59.823Z,-6.86
2022-12-13T18:54:20.654Z,-6.78
2022-12-13T18:59:41.416Z,-6.98
2022-12-13T19:05:15.157Z,-7.20
2022-12-13T19:10:36.049Z,-7.08
2022-12-13T19:15:58.424Z,-7.37
2022-12-13T19:21:21.531Z,-7.42
2022-12-13T19:26:42.150Z,-7.41
2022-12-13T19:32:03.118Z,-7.52
2022-12-13T19:37:24.896Z,-7.47
2022-12-13T19:42:45.844Z,-7.32
2022-12-13T19:48:06.391Z,-7.43
2022-12-13T19:53:30.987Z,-7.32
2022-12-13T19:58:51.770Z,-7.62
2022-12-13T20:04:12.654Z,-7.60
2022-12-13T20:09:33.503Z,-7.52
2022-12-13T20:14:54.080Z,-7.54
2022-12-13T20:20:14.933Z,-6.39
2022-12-13T20:25:35.564Z,-7.03
2022-12-13T20:31:28.096Z,-7.17
2022-12-13T20:36:50.148Z,-7.43
2022-12-13T20:42:11.290Z,-7.75
2022-12-13T20:47:37.623Z,-8.05
2022-12-13T20:52:59.410Z,-8.17
2022-12-13T20:58:20.336Z,-8.21
2022-12-13T21:03:41.250Z,-8.21
2022-12-13T21:09:04.091Z,-8.22
2022-12-13T21:14:28.539Z,-7.97
2022-12-13T21:19:49.237Z,-7.81
2022-12-13T21:25:10.042Z,-7.79
2022-12-13T21:30:30.751Z,-7.53
2022-12-13T21:35:51.303Z,-7.64
2022-12-13T21:41:12.191Z,-7.68
2022-12-13T21:47:10.153Z,-7.71
2022-12-13T21:52:13.885Z,-7.92
2022-12-13T21:57:53.355Z,-8.10
2022-12-13T22:03:14.340Z,-8.01
2022-12-13T22:08:35.087Z,-7.92
2022-12-13T22:13:56.907Z,-7.76
2022-12-13T22:19:18.149Z,-7.68
2022-12-13T22:24:38.853Z,-7.62
2022-12-13T22:29:59.719Z,-7.51
2022-12-13T22:35:20.751Z,-7.42
2022-12-13T22:40:41.272Z,-7.10
2022-12-13T22:46:04.083Z,-7.09
2022-12-13T22:51:25.268Z,-7.11
2022-12-13T22:56:49.618Z,-6.99
2022-12-13T23:02:10.659Z,-6.86
2022-12-13T23:07:31.756Z,-7.05
2022-12-13T23:13:04.579Z,-7.09
2022-12-13T23:18:25.824Z,-7.05
2022-12-13T23:23:47.072Z,-6.96
2022-12-13T23:29:09.296Z,-6.97
2022-12-13T23:34:30.264Z,-7.03
2022-12-13T23:39:51.055Z,-6.91
2022-12-13T23:45:11.793Z,-6.91
2022-12-13T23:50:32.769Z,-6.96
2022-12-13T23:55:53.502Z,-6.90
